sensor_id;sensor_type;location;lat;lon;timestamp;temperature;humidity
21244;DHT22;10780;50.942;4.028;2023-03-01T00:01:15;1.90;99.90
21244;DHT22;10780;50.942;4.028;2023-03-01T00:03:41;1.80;99.90
21244;DHT22;10780;50.942;4.028;2023-03-01T00:06:07;1.70;99.90
21244;DHT22;10780;50.942;4.028;2023-03-01T00:08:34;1.60;99.90
21244;DHT22;10780;50.942;4.028;2023-03-01T00:11:16;1.30;99.90
21244;DHT22;10780;50.942;4.028;2023-03-01T00:13:43;1.30;99.90
21244;DHT22;10780;50.942;4.028;2023-03-01T00:16:11;1.30;99.90
21244;DHT22;10780;50.942;4.028;2023-03-01T00:18:38;1.30;99.90
21244;DHT22;10780;50.942;4.028;2023-03-01T00:21:04;1.20;99.90
21244;DHT22;10780;50.942;4.028;2023-03-01T00:23:31;1.20;99.90
21244;DHT22;10780;50.942;4.028;2023-03-01T00:25:57;1.10;99.90
21244;DHT22;10780;50.942;4.028;2023-03-01T00:28:22;1.20;99.90
21244;DHT22;10780;50.942;4.028;2023-03-01T00:30:49;1.20;99.90
21244;DHT22;10780;50.942;4.028;2023-03-01T00:33:15;1.10;99.90
21244;DHT22;10780;50.942;4.028;2023-03-01T00:35:40;1.10;99.90
21244;DHT22;10780;50.942;4.028;2023-03-01T00:38:06;1.10;99.90
21244;DHT22;10780;50.942;4.028;2023-03-01T00:40:34;1.00;99.90
21244;DHT22;10780;50.942;4.028;2023-03-01T00:43:00;1.00;99.90
21244;DHT22;10780;50.942;4.028;2023-03-01T00:45:26;1.00;99.90
21244;DHT22;10780;50.942;4.028;2023-03-01T00:47:53;1.00;99.90
21244;DHT22;10780;50.942;4.028;2023-03-01T00:50:19;1.00;99.90
21244;DHT22;10780;50.942;4.028;2023-03-01T00:52:45;1.00;99.90
21244;DHT22;10780;50.942;4.028;2023-03-01T00:55:11;1.00;99.90
21244;DHT22;10780;50.942;4.028;2023-03-01T00:57:37;0.90;99.90
21244;DHT22;10780;50.942;4.028;2023-03-01T01:00:05;0.80;99.90
21244;DHT22;10780;50.942;4.028;2023-03-01T01:02:33;0.80;99.90
21244;DHT22;10780;50.942;4.028;2023-03-01T01:04:59;0.90;99.90
21244;DHT22;10780;50.942;4.028;2023-03-01T01:07:25;1.10;99.90
21244;DHT22;10780;50.942;4.028;2023-03-01T01:09:51;1.30;99.90
21244;DHT22;10780;50.942;4.028;2023-03-01T01:12:16;1.30;99.90
21244;DHT22;10780;50.942;4.028;2023-03-01T01:14:42;1.50;99.90
21244;DHT22;10780;50.942;4.028;2023-03-01T01:17:08;1.60;99.90
21244;DHT22;10780;50.942;4.028;2023-03-01T01:19:33;1.70;99.90
21244;DHT22;10780;50.942;4.028;2023-03-01T01:21:59;1.50;99.90
21244;DHT22;10780;50.942;4.028;2023-03-01T01:24:24;1.40;99.90
21244;DHT22;10780;50.942;4.028;2023-03-01T01:26:50;1.40;99.90
21244;DHT22;10780;50.942;4.028;2023-03-01T01:29:16;1.50;99.90
21244;DHT22;10780;50.942;4.028;2023-03-01T01:31:42;1.60;99.90
21244;DHT22;10780;50.942;4.028;2023-03-01T01:34:14;1.50;99.90
21244;DHT22;10780;50.942;4.028;2023-03-01T01:36:39;1.40;99.90
21244;DHT22;10780;50.942;4.028;2023-03-01T01:39:05;1.40;99.90
21244;DHT22;10780;50.942;4.028;2023-03-01T01:41:32;1.40;99.90
21244;DHT22;10780;50.942;4.028;2023-03-01T01:44:17;1.40;99.90
21244;DHT22;10780;50.942;4.028;2023-03-01T01:46:51;1.30;99.90
21244;DHT22;10780;50.942;4.028;2023-03-01T01:52:08;1.20;99.90
21244;DHT22;10780;50.942;4.028;2023-03-01T01:57:19;1.10;99.90
21244;DHT22;10780;50.942;4.028;2023-03-01T01:59:52;1.10;99.90
21244;DHT22;10780;50.942;4.028;2023-03-01T02:02:19;1.10;99.90
21244;DHT22;10780;50.942;4.028;2023-03-01T02:04:45;1.00;99.90
21244;DHT22;10780;50.942;4.028;2023-03-01T02:07:23;0.90;99.90
21244;DHT22;10780;50.942;4.028;2023-03-01T02:09:51;1.00;99.90
21244;DHT22;10780;50.942;4.028;2023-03-01T02:12:20;1.00;99.90
21244;DHT22;10780;50.942;4.028;2023-03-01T02:14:47;1.00;99.90
21244;DHT22;10780;50.942;4.028;2023-03-01T02:17:15;1.00;99.90
21244;DHT22;10780;50.942;4.028;2023-03-01T02:20:27;1.00;99.90
21244;DHT22;10780;50.942;4.028;2023-03-01T02:22:55;0.90;99.90
21244;DHT22;10780;50.942;4.028;2023-03-01T02:28:35;0.70;99.90
21244;DHT22;10780;50.942;4.028;2023-03-01T02:31:03;0.70;99.90
21244;DHT22;10780;50.942;4.028;2023-03-01T02:33:47;0.60;99.90
21244;DHT22;10780;50.942;4.028;2023-03-01T02:36:25;0.50;99.90
21244;DHT22;10780;50.942;4.028;2023-03-01T02:38:57;0.50;99.90
21244;DHT22;10780;50.942;4.028;2023-03-01T02:41:24;0.60;99.90
21244;DHT22;10780;50.942;4.028;2023-03-01T02:43:52;0.50;99.90
21244;DHT22;10780;50.942;4.028;2023-03-01T02:46:23;0.50;99.90
21244;DHT22;10780;50.942;4.028;2023-03-01T02:48:51;0.40;99.90
21244;DHT22;10780;50.942;4.028;2023-03-01T02:54:17;0.30;99.90
21244;DHT22;10780;50.942;4.028;2023-03-01T02:56:47;0.40;99.90
21244;DHT22;10780;50.942;4.028;2023-03-01T02:59:15;0.50;99.90
21244;DHT22;10780;50.942;4.028;2023-03-01T03:01:41;0.40;99.90
21244;DHT22;10780;50.942;4.028;2023-03-01T03:04:10;0.50;99.90
21244;DHT22;10780;50.942;4.028;2023-03-01T03:06:37;0.70;99.90
21244;DHT22;10780;50.942;4.028;2023-03-01T03:09:04;0.90;99.90
21244;DHT22;10780;50.942;4.028;2023-03-01T03:11:30;1.00;99.90
21244;DHT22;10780;50.942;4.028;2023-03-01T03:13:56;0.90;99.90
21244;DHT22;10780;50.942;4.028;2023-03-01T03:16:23;0.80;99.90
21244;DHT22;10780;50.942;4.028;2023-03-01T03:18:50;0.80;99.90
21244;DHT22;10780;50.942;4.028;2023-03-01T03:21:16;0.90;99.90
21244;DHT22;10780;50.942;4.028;2023-03-01T03:23:42;0.80;99.90
21244;DHT22;10780;50.942;4.028;2023-03-01T03:26:08;0.80;99.90
21244;DHT22;10780;50.942;4.028;2023-03-01T03:28:34;0.80;99.90
21244;DHT22;10780;50.942;4.028;2023-03-01T03:31:01;0.90;99.90
21244;DHT22;10780;50.942;4.028;2023-03-01T03:33:30;0.80;99.90
21244;DHT22;10780;50.942;4.028;2023-03-01T03:35:55;0.80;99.90
21244;DHT22;10780;50.942;4.028;2023-03-01T03:38:22;0.90;99.90
21244;DHT22;10780;50.942;4.028;2023-03-01T03:40:59;0.80;99.90
21244;DHT22;10780;50.942;4.028;2023-03-01T03:43:29;0.60;99.90
21244;DHT22;10780;50.942;4.028;2023-03-01T03:45:55;0.60;99.90
21244;DHT22;10780;50.942;4.028;2023-03-01T03:48:22;0.70;99.90
21244;DHT22;10780;50.942;4.028;2023-03-01T03:50:53;0.70;99.90
21244;DHT22;10780;50.942;4.028;2023-03-01T03:53:19;0.60;99.90
21244;DHT22;10780;50.942;4.028;2023-03-01T03:55:45;0.50;99.90
21244;DHT22;10780;50.942;4.028;2023-03-01T03:58:15;0.30;99.90
21244;DHT22;10780;50.942;4.028;2023-03-01T04:00:44;0.20;99.90
21244;DHT22;10780;50.942;4.028;2023-03-01T04:03:11;0.40;99.90
21244;DHT22;10780;50.942;4.028;2023-03-01T04:05:37;0.50;99.90
21244;DHT22;10780;50.942;4.028;2023-03-01T04:08:04;0.60;99.90
21244;DHT22;10780;50.942;4.028;2023-03-01T04:13:03;0.50;99.90
21244;DHT22;10780;50.942;4.028;2023-03-01T04:15:30;0.50;99.90
21244;DHT22;10780;50.942;4.028;2023-03-01T04:17:55;0.60;99.90
21244;DHT22;10780;50.942;4.028;2023-03-01T04:20:24;0.50;99.90
21244;DHT22;10780;50.942;4.028;2023-03-01T04:23:10;0.50;99.90
21244;DHT22;10780;50.942;4.028;2023-03-01T04:25:41;0.60;99.90
21244;DHT22;10780;50.942;4.028;2023-03-01T04:28:07;0.40;99.90
21244;DHT22;10780;50.942;4.028;2023-03-01T04:30:34;0.40;99.90
21244;DHT22;10780;50.942;4.028;2023-03-01T04:33:05;0.50;99.90
21244;DHT22;10780;50.942;4.028;2023-03-01T04:35:32;0.50;99.90
21244;DHT22;10780;50.942;4.028;2023-03-01T04:37:58;0.60;99.90
21244;DHT22;10780;50.942;4.028;2023-03-01T04:40:24;0.60;99.90
21244;DHT22;10780;50.942;4.028;2023-03-01T04:42:50;0.50;99.90
21244;DHT22;10780;50.942;4.028;2023-03-01T04:45:16;0.60;99.90
21244;DHT22;10780;50.942;4.028;2023-03-01T04:47:43;0.30;99.90
21244;DHT22;10780;50.942;4.028;2023-03-01T04:50:11;0.20;99.90
21244;DHT22;10780;50.942;4.028;2023-03-01T04:52:37;0.20;99.90
21244;DHT22;10780;50.942;4.028;2023-03-01T04:55:04;0.30;99.90
21244;DHT22;10780;50.942;4.028;2023-03-01T04:57:30;0.30;99.90
21244;DHT22;10780;50.942;4.028;2023-03-01T04:59:56;0.30;99.90
21244;DHT22;10780;50.942;4.028;2023-03-01T05:02:22;0.20;99.90
21244;DHT22;10780;50.942;4.028;2023-03-01T05:04:47;0.30;99.90
21244;DHT22;10780;50.942;4.028;2023-03-01T05:07:13;0.20;99.90
21244;DHT22;10780;50.942;4.028;2023-03-01T05:09:45;0.10;99.90
21244;DHT22;10780;50.942;4.028;2023-03-01T05:12:11;0.00;99.90
21244;DHT22;10780;50.942;4.028;2023-03-01T05:14:36;0.10;99.90
21244;DHT22;10780;50.942;4.028;2023-03-01T05:17:03;0.30;99.90
21244;DHT22;10780;50.942;4.028;2023-03-01T05:19:30;0.20;99.90
21244;DHT22;10780;50.942;4.028;2023-03-01T05:21:57;0.20;99.90
21244;DHT22;10780;50.942;4.028;2023-03-01T05:24:33;0.10;99.90
21244;DHT22;10780;50.942;4.028;2023-03-01T05:27:00;0.10;99.90
21244;DHT22;10780;50.942;4.028;2023-03-01T05:29:28;0.10;99.90
21244;DHT22;10780;50.942;4.028;2023-03-01T05:31:58;0.20;99.90
21244;DHT22;10780;50.942;4.028;2023-03-01T05:34:29;0.30;99.90
21244;DHT22;10780;50.942;4.028;2023-03-01T05:36:56;0.30;99.90
21244;DHT22;10780;50.942;4.028;2023-03-01T05:39:23;0.20;99.90
21244;DHT22;10780;50.942;4.028;2023-03-01T05:41:52;0.20;99.90
21244;DHT22;10780;50.942;4.028;2023-03-01T05:44:18;0.10;99.90
21244;DHT22;10780;50.942;4.028;2023-03-01T05:46:44;0.10;99.90
21244;DHT22;10780;50.942;4.028;2023-03-01T05:49:10;0.00;99.90
21244;DHT22;10780;50.942;4.028;2023-03-01T05:51:36;-0.10;99.90
21244;DHT22;10780;50.942;4.028;2023-03-01T05:54:02;-0.10;99.90
21244;DHT22;10780;50.942;4.028;2023-03-01T05:56:28;-0.10;99.90
21244;DHT22;10780;50.942;4.028;2023-03-01T05:58:54;0.00;99.90
21244;DHT22;10780;50.942;4.028;2023-03-01T06:01:20;0.00;99.90
21244;DHT22;10780;50.942;4.028;2023-03-01T06:03:45;0.10;99.90
21244;DHT22;10780;50.942;4.028;2023-03-01T06:06:11;-0.10;99.90
21244;DHT22;10780;50.942;4.028;2023-03-01T06:08:37;-0.20;99.90
21244;DHT22;10780;50.942;4.028;2023-03-01T06:11:03;-0.10;99.90
21244;DHT22;10780;50.942;4.028;2023-03-01T06:13:28;-0.20;99.90
21244;DHT22;10780;50.942;4.028;2023-03-01T06:15:55;-0.20;99.90
21244;DHT22;10780;50.942;4.028;2023-03-01T06:18:20;-0.10;99.90
21244;DHT22;10780;50.942;4.028;2023-03-01T06:20:53;-0.10;99.90
21244;DHT22;10780;50.942;4.028;2023-03-01T06:23:19;-0.20;99.90
21244;DHT22;10780;50.942;4.028;2023-03-01T06:25:44;-0.10;99.90
21244;DHT22;10780;50.942;4.028;2023-03-01T06:28:10;-0.10;99.90
21244;DHT22;10780;50.942;4.028;2023-03-01T06:30:36;-0.10;99.90
21244;DHT22;10780;50.942;4.028;2023-03-01T06:33:01;0.00;99.90
21244;DHT22;10780;50.942;4.028;2023-03-01T06:35:29;0.00;99.90
21244;DHT22;10780;50.942;4.028;2023-03-01T06:37:56;0.10;99.90
21244;DHT22;10780;50.942;4.028;2023-03-01T06:40:22;0.10;99.90
21244;DHT22;10780;50.942;4.028;2023-03-01T06:42:49;0.10;99.90
21244;DHT22;10780;50.942;4.028;2023-03-01T06:45:16;0.00;99.90
21244;DHT22;10780;50.942;4.028;2023-03-01T06:47:42;0.10;99.90
21244;DHT22;10780;50.942;4.028;2023-03-01T06:50:08;0.20;99.90
21244;DHT22;10780;50.942;4.028;2023-03-01T06:52:34;0.10;99.90
21244;DHT22;10780;50.942;4.028;2023-03-01T06:54:59;0.10;99.90
21244;DHT22;10780;50.942;4.028;2023-03-01T06:57:25;0.30;99.90
21244;DHT22;10780;50.942;4.028;2023-03-01T06:59:51;0.30;99.90
21244;DHT22;10780;50.942;4.028;2023-03-01T07:02:17;0.40;99.90
21244;DHT22;10780;50.942;4.028;2023-03-01T07:04:43;0.30;99.90
21244;DHT22;10780;50.942;4.028;2023-03-01T07:07:09;0.30;99.90
21244;DHT22;10780;50.942;4.028;2023-03-01T07:09:34;0.20;99.90
21244;DHT22;10780;50.942;4.028;2023-03-01T07:12:02;0.20;99.90
21244;DHT22;10780;50.942;4.028;2023-03-01T07:14:28;0.20;99.90
21244;DHT22;10780;50.942;4.028;2023-03-01T07:16:55;0.10;99.90
21244;DHT22;10780;50.942;4.028;2023-03-01T07:19:21;0.20;99.90
21244;DHT22;10780;50.942;4.028;2023-03-01T07:21:47;0.20;99.90
21244;DHT22;10780;50.942;4.028;2023-03-01T07:24:13;0.20;99.90
21244;DHT22;10780;50.942;4.028;2023-03-01T07:26:43;0.40;99.90
21244;DHT22;10780;50.942;4.028;2023-03-01T07:29:10;0.50;99.90
21244;DHT22;10780;50.942;4.028;2023-03-01T07:31:38;0.60;99.90
21244;DHT22;10780;50.942;4.028;2023-03-01T07:34:04;0.80;99.90
21244;DHT22;10780;50.942;4.028;2023-03-01T07:36:30;0.80;99.90
21244;DHT22;10780;50.942;4.028;2023-03-01T07:38:56;1.00;99.90
21244;DHT22;10780;50.942;4.028;2023-03-01T07:41:22;1.00;99.90
21244;DHT22;10780;50.942;4.028;2023-03-01T07:43:48;1.00;99.90
21244;DHT22;10780;50.942;4.028;2023-03-01T07:46:14;1.10;99.90
21244;DHT22;10780;50.942;4.028;2023-03-01T07:48:40;1.20;99.90
21244;DHT22;10780;50.942;4.028;2023-03-01T07:51:07;1.30;99.90
21244;DHT22;10780;50.942;4.028;2023-03-01T07:53:34;1.30;99.90
21244;DHT22;10780;50.942;4.028;2023-03-01T07:56:12;1.30;99.90
21244;DHT22;10780;50.942;4.028;2023-03-01T07:58:40;1.40;99.90
21244;DHT22;10780;50.942;4.028;2023-03-01T08:01:08;1.50;99.90
21244;DHT22;10780;50.942;4.028;2023-03-01T08:03:36;1.60;99.90
21244;DHT22;10780;50.942;4.028;2023-03-01T08:06:03;1.60;99.90
21244;DHT22;10780;50.942;4.028;2023-03-01T08:08:29;1.70;99.90
21244;DHT22;10780;50.942;4.028;2023-03-01T08:10:59;1.70;99.90
21244;DHT22;10780;50.942;4.028;2023-03-01T08:13:26;1.70;99.90
21244;DHT22;10780;50.942;4.028;2023-03-01T08:15:53;1.70;99.90
21244;DHT22;10780;50.942;4.028;2023-03-01T08:18:20;1.70;99.90
21244;DHT22;10780;50.942;4.028;2023-03-01T08:20:46;1.70;99.90
21244;DHT22;10780;50.942;4.028;2023-03-01T08:23:12;1.80;99.90
21244;DHT22;10780;50.942;4.028;2023-03-01T08:25:38;1.80;99.90
21244;DHT22;10780;50.942;4.028;2023-03-01T08:28:04;1.90;99.90
21244;DHT22;10780;50.942;4.028;2023-03-01T08:30:30;2.00;99.90
21244;DHT22;10780;50.942;4.028;2023-03-01T08:32:56;2.00;99.90
21244;DHT22;10780;50.942;4.028;2023-03-01T08:35:22;2.10;99.90
21244;DHT22;10780;50.942;4.028;2023-03-01T08:37:48;2.40;99.90
21244;DHT22;10780;50.942;4.028;2023-03-01T08:40:14;2.40;99.90
21244;DHT22;10780;50.942;4.028;2023-03-01T08:42:42;2.40;99.90
21244;DHT22;10780;50.942;4.028;2023-03-01T08:45:11;2.40;99.90
21244;DHT22;10780;50.942;4.028;2023-03-01T08:47:38;2.50;99.90
21244;DHT22;10780;50.942;4.028;2023-03-01T08:50:04;2.50;99.90
21244;DHT22;10780;50.942;4.028;2023-03-01T08:52:32;2.70;99.90
21244;DHT22;10780;50.942;4.028;2023-03-01T08:54:58;2.80;99.90
21244;DHT22;10780;50.942;4.028;2023-03-01T08:57:23;2.80;99.90
21244;DHT22;10780;50.942;4.028;2023-03-01T08:59:49;2.70;99.90
21244;DHT22;10780;50.942;4.028;2023-03-01T09:02:17;2.80;99.90
21244;DHT22;10780;50.942;4.028;2023-03-01T09:04:43;2.90;99.90
21244;DHT22;10780;50.942;4.028;2023-03-01T09:07:10;2.90;99.90
21244;DHT22;10780;50.942;4.028;2023-03-01T09:09:36;3.00;99.90
21244;DHT22;10780;50.942;4.028;2023-03-01T09:12:06;3.00;99.90
21244;DHT22;10780;50.942;4.028;2023-03-01T09:14:34;3.00;99.90
21244;DHT22;10780;50.942;4.028;2023-03-01T09:17:00;3.20;99.90
21244;DHT22;10780;50.942;4.028;2023-03-01T09:19:28;3.20;99.90
21244;DHT22;10780;50.942;4.028;2023-03-01T09:21:55;3.30;99.90
21244;DHT22;10780;50.942;4.028;2023-03-01T09:24:23;3.40;99.90
21244;DHT22;10780;50.942;4.028;2023-03-01T09:26:49;3.40;99.90
21244;DHT22;10780;50.942;4.028;2023-03-01T09:29:16;3.50;99.90
21244;DHT22;10780;50.942;4.028;2023-03-01T09:31:42;3.60;99.90
21244;DHT22;10780;50.942;4.028;2023-03-01T09:34:09;3.60;99.90
21244;DHT22;10780;50.942;4.028;2023-03-01T09:36:36;3.70;99.90
21244;DHT22;10780;50.942;4.028;2023-03-01T09:39:03;3.80;99.90
21244;DHT22;10780;50.942;4.028;2023-03-01T09:41:46;3.90;99.90
21244;DHT22;10780;50.942;4.028;2023-03-01T09:44:20;3.90;99.90
21244;DHT22;10780;50.942;4.028;2023-03-01T09:46:49;3.80;99.90
21244;DHT22;10780;50.942;4.028;2023-03-01T09:49:19;3.90;99.90
21244;DHT22;10780;50.942;4.028;2023-03-01T09:52:12;3.90;99.90
21244;DHT22;10780;50.942;4.028;2023-03-01T09:54:41;4.10;99.90
21244;DHT22;10780;50.942;4.028;2023-03-01T10:02:33;4.30;99.90
21244;DHT22;10780;50.942;4.028;2023-03-01T10:05:34;4.40;99.90
21244;DHT22;10780;50.942;4.028;2023-03-01T10:10:38;4.50;99.90
21244;DHT22;10780;50.942;4.028;2023-03-01T10:15:47;4.70;99.90
21244;DHT22;10780;50.942;4.028;2023-03-01T10:18:20;4.70;99.90
21244;DHT22;10780;50.942;4.028;2023-03-01T10:20:55;4.80;99.90
21244;DHT22;10780;50.942;4.028;2023-03-01T10:23:23;4.80;99.90
21244;DHT22;10780;50.942;4.028;2023-03-01T10:31:14;5.00;99.90
21244;DHT22;10780;50.942;4.028;2023-03-01T10:33:41;5.00;99.90
21244;DHT22;10780;50.942;4.028;2023-03-01T10:36:08;5.10;99.90
21244;DHT22;10780;50.942;4.028;2023-03-01T10:38:54;5.10;99.90
21244;DHT22;10780;50.942;4.028;2023-03-01T10:41:21;5.10;99.90
21244;DHT22;10780;50.942;4.028;2023-03-01T10:43:55;5.20;99.90
21244;DHT22;10780;50.942;4.028;2023-03-01T10:46:39;5.20;99.90
21244;DHT22;10780;50.942;4.028;2023-03-01T10:49:15;5.20;99.90
21244;DHT22;10780;50.942;4.028;2023-03-01T10:51:43;5.40;99.90
21244;DHT22;10780;50.942;4.028;2023-03-01T10:54:20;5.60;99.90
21244;DHT22;10780;50.942;4.028;2023-03-01T10:56:53;5.50;99.90
21244;DHT22;10780;50.942;4.028;2023-03-01T10:59:35;5.50;99.90
21244;DHT22;10780;50.942;4.028;2023-03-01T11:02:18;5.50;99.90
21244;DHT22;10780;50.942;4.028;2023-03-01T11:07:24;5.40;99.90
21244;DHT22;10780;50.942;4.028;2023-03-01T11:09:49;5.40;99.90
21244;DHT22;10780;50.942;4.028;2023-03-01T11:12:16;5.40;99.90
21244;DHT22;10780;50.942;4.028;2023-03-01T11:14:53;5.50;99.90
21244;DHT22;10780;50.942;4.028;2023-03-01T11:17:29;5.50;99.90
21244;DHT22;10780;50.942;4.028;2023-03-01T11:20:17;5.50;99.90
21244;DHT22;10780;50.942;4.028;2023-03-01T11:22:58;5.50;99.90
21244;DHT22;10780;50.942;4.028;2023-03-01T11:25:28;5.60;99.90
21244;DHT22;10780;50.942;4.028;2023-03-01T11:27:56;5.70;99.90
21244;DHT22;10780;50.942;4.028;2023-03-01T11:30:31;5.70;99.90
21244;DHT22;10780;50.942;4.028;2023-03-01T11:33:18;5.90;99.90
21244;DHT22;10780;50.942;4.028;2023-03-01T11:35:53;5.90;99.90
21244;DHT22;10780;50.942;4.028;2023-03-01T11:38:25;5.90;99.90
21244;DHT22;10780;50.942;4.028;2023-03-01T11:40:54;5.90;99.90
21244;DHT22;10780;50.942;4.028;2023-03-01T11:43:38;6.10;99.90
21244;DHT22;10780;50.942;4.028;2023-03-01T12:05:55;6.30;99.90
21244;DHT22;10780;50.942;4.028;2023-03-01T12:08:40;6.20;99.90
21244;DHT22;10780;50.942;4.028;2023-03-01T12:16:38;6.40;99.90
21244;DHT22;10780;50.942;4.028;2023-03-01T12:27:29;6.70;99.90
21244;DHT22;10780;50.942;4.028;2023-03-01T12:32:45;6.90;99.90
21244;DHT22;10780;50.942;4.028;2023-03-01T12:38:08;6.90;99.90
21244;DHT22;10780;50.942;4.028;2023-03-01T12:41:05;6.80;99.90
21244;DHT22;10780;50.942;4.028;2023-03-01T12:49:16;6.80;99.90
21244;DHT22;10780;50.942;4.028;2023-03-01T12:51:56;6.90;99.90
21244;DHT22;10780;50.942;4.028;2023-03-01T12:54:31;7.00;99.90
21244;DHT22;10780;50.942;4.028;2023-03-01T12:57:06;7.10;99.90
21244;DHT22;10780;50.942;4.028;2023-03-01T13:03:20;7.00;99.90
21244;DHT22;10780;50.942;4.028;2023-03-01T13:08:58;7.30;99.90
21244;DHT22;10780;50.942;4.028;2023-03-01T13:11:27;7.30;99.90
21244;DHT22;10780;50.942;4.028;2023-03-01T13:16:54;7.40;99.90
21244;DHT22;10780;50.942;4.028;2023-03-01T13:19:24;7.50;99.90
21244;DHT22;10780;50.942;4.028;2023-03-01T13:21:52;7.40;99.90
21244;DHT22;10780;50.942;4.028;2023-03-01T13:29:51;7.20;99.90
21244;DHT22;10780;50.942;4.028;2023-03-01T13:37:31;7.20;99.90
21244;DHT22;10780;50.942;4.028;2023-03-01T13:39:59;7.40;99.90
21244;DHT22;10780;50.942;4.028;2023-03-01T13:42:43;7.40;99.90
21244;DHT22;10780;50.942;4.028;2023-03-01T13:45:41;7.50;99.90
21244;DHT22;10780;50.942;4.028;2023-03-01T13:48:15;7.40;99.90
21244;DHT22;10780;50.942;4.028;2023-03-01T13:50:52;7.40;99.90
21244;DHT22;10780;50.942;4.028;2023-03-01T13:53:21;7.50;99.90
21244;DHT22;10780;50.942;4.028;2023-03-01T13:55:55;7.50;99.90
21244;DHT22;10780;50.942;4.028;2023-03-01T13:58:32;7.50;99.90
21244;DHT22;10780;50.942;4.028;2023-03-01T14:01:04;7.50;99.90
21244;DHT22;10780;50.942;4.028;2023-03-01T14:03:32;7.40;99.90
21244;DHT22;10780;50.942;4.028;2023-03-01T14:06:09;7.50;99.90
21244;DHT22;10780;50.942;4.028;2023-03-01T14:08:37;7.50;99.90
21244;DHT22;10780;50.942;4.028;2023-03-01T14:11:35;7.60;99.90
21244;DHT22;10780;50.942;4.028;2023-03-01T14:14:22;7.60;99.90
21244;DHT22;10780;50.942;4.028;2023-03-01T14:19:34;7.80;99.90
21244;DHT22;10780;50.942;4.028;2023-03-01T14:22:27;7.90;99.90
21244;DHT22;10780;50.942;4.028;2023-03-01T14:24:55;7.90;99.90
21244;DHT22;10780;50.942;4.028;2023-03-01T14:27:21;7.90;99.90
21244;DHT22;10780;50.942;4.028;2023-03-01T14:29:58;7.90;99.90
21244;DHT22;10780;50.942;4.028;2023-03-01T14:32:27;7.90;99.90
21244;DHT22;10780;50.942;4.028;2023-03-01T14:34:53;7.90;99.90
21244;DHT22;10780;50.942;4.028;2023-03-01T14:37:33;7.90;99.90
21244;DHT22;10780;50.942;4.028;2023-03-01T14:40:00;7.90;99.90
21244;DHT22;10780;50.942;4.028;2023-03-01T14:42:35;7.80;99.90
21244;DHT22;10780;50.942;4.028;2023-03-01T14:45:02;7.80;99.90
21244;DHT22;10780;50.942;4.028;2023-03-01T14:47:32;7.70;99.90
21244;DHT22;10780;50.942;4.028;2023-03-01T14:50:42;7.70;99.90
21244;DHT22;10780;50.942;4.028;2023-03-01T14:52:52;7.70;99.90
21244;DHT22;10780;50.942;4.028;2023-03-01T14:55:27;7.70;99.90
21244;DHT22;10780;50.942;4.028;2023-03-01T14:57:54;7.80;99.90
21244;DHT22;10780;50.942;4.028;2023-03-01T15:00:30;7.80;99.90
21244;DHT22;10780;50.942;4.028;2023-03-01T15:03:01;7.90;99.90
21244;DHT22;10780;50.942;4.028;2023-03-01T15:05:32;7.80;99.90
21244;DHT22;10780;50.942;4.028;2023-03-01T15:08:00;7.90;99.90
21244;DHT22;10780;50.942;4.028;2023-03-01T15:10:29;7.80;99.90
21244;DHT22;10780;50.942;4.028;2023-03-01T15:12:55;7.80;99.90
21244;DHT22;10780;50.942;4.028;2023-03-01T15:15:36;7.80;99.90
21244;DHT22;10780;50.942;4.028;2023-03-01T15:18:25;7.70;99.90
21244;DHT22;10780;50.942;4.028;2023-03-01T15:20:52;7.70;99.90
21244;DHT22;10780;50.942;4.028;2023-03-01T15:23:28;7.90;99.90
21244;DHT22;10780;50.942;4.028;2023-03-01T15:25:54;7.90;99.90
21244;DHT22;10780;50.942;4.028;2023-03-01T15:28:27;7.90;99.90
21244;DHT22;10780;50.942;4.028;2023-03-01T15:31:53;7.80;99.90
21244;DHT22;10780;50.942;4.028;2023-03-01T15:33:51;7.80;99.90
21244;DHT22;10780;50.942;4.028;2023-03-01T15:36:43;7.70;99.90
21244;DHT22;10780;50.942;4.028;2023-03-01T15:39:32;7.70;99.90
21244;DHT22;10780;50.942;4.028;2023-03-01T15:42:03;7.70;99.90
21244;DHT22;10780;50.942;4.028;2023-03-01T15:44:33;7.70;99.90
21244;DHT22;10780;50.942;4.028;2023-03-01T15:47:00;7.70;99.90
21244;DHT22;10780;50.942;4.028;2023-03-01T15:49:42;7.70;99.90
21244;DHT22;10780;50.942;4.028;2023-03-01T15:52:32;7.70;99.90
21244;DHT22;10780;50.942;4.028;2023-03-01T15:55:04;7.70;99.90
21244;DHT22;10780;50.942;4.028;2023-03-01T15:57:30;7.70;99.90
21244;DHT22;10780;50.942;4.028;2023-03-01T15:59:56;7.70;99.90
21244;DHT22;10780;50.942;4.028;2023-03-01T16:02:23;7.60;99.90
21244;DHT22;10780;50.942;4.028;2023-03-01T16:04:49;7.60;99.90
21244;DHT22;10780;50.942;4.028;2023-03-01T16:07:15;7.60;99.90
21244;DHT22;10780;50.942;4.028;2023-03-01T16:09:42;7.70;99.90
21244;DHT22;10780;50.942;4.028;2023-03-01T16:12:14;8.00;99.90
21244;DHT22;10780;50.942;4.028;2023-03-01T16:14:41;8.40;99.90
21244;DHT22;10780;50.942;4.028;2023-03-01T16:17:06;8.80;99.90
21244;DHT22;10780;50.942;4.028;2023-03-01T16:19:35;9.30;99.90
21244;DHT22;10780;50.942;4.028;2023-03-01T16:22:02;9.60;99.90
21244;DHT22;10780;50.942;4.028;2023-03-01T16:24:28;9.70;99.90
21244;DHT22;10780;50.942;4.028;2023-03-01T16:26:54;9.70;99.90
21244;DHT22;10780;50.942;4.028;2023-03-01T16:29:19;9.60;99.90
21244;DHT22;10780;50.942;4.028;2023-03-01T16:31:45;9.80;99.90
21244;DHT22;10780;50.942;4.028;2023-03-01T16:34:10;9.90;99.90
21244;DHT22;10780;50.942;4.028;2023-03-01T16:36:36;10.00;99.90
21244;DHT22;10780;50.942;4.028;2023-03-01T16:39:02;10.10;99.90
21244;DHT22;10780;50.942;4.028;2023-03-01T16:41:28;9.80;99.90
21244;DHT22;10780;50.942;4.028;2023-03-01T16:43:54;9.80;99.90
21244;DHT22;10780;50.942;4.028;2023-03-01T16:46:22;9.70;99.90
21244;DHT22;10780;50.942;4.028;2023-03-01T16:48:49;9.70;99.90
21244;DHT22;10780;50.942;4.028;2023-03-01T16:51:14;9.90;99.90
21244;DHT22;10780;50.942;4.028;2023-03-01T16:53:40;9.70;99.90
21244;DHT22;10780;50.942;4.028;2023-03-01T16:56:08;9.50;99.90
21244;DHT22;10780;50.942;4.028;2023-03-01T16:58:36;9.30;99.90
21244;DHT22;10780;50.942;4.028;2023-03-01T17:01:16;9.20;99.90
21244;DHT22;10780;50.942;4.028;2023-03-01T17:03:43;9.10;99.90
21244;DHT22;10780;50.942;4.028;2023-03-01T17:06:12;9.10;99.90
21244;DHT22;10780;50.942;4.028;2023-03-01T17:08:39;8.90;99.90
21244;DHT22;10780;50.942;4.028;2023-03-01T17:11:13;8.80;99.90
21244;DHT22;10780;50.942;4.028;2023-03-01T17:13:39;8.60;99.90
21244;DHT22;10780;50.942;4.028;2023-03-01T17:16:07;8.40;99.90
21244;DHT22;10780;50.942;4.028;2023-03-01T17:18:33;8.20;99.90
21244;DHT22;10780;50.942;4.028;2023-03-01T17:20:59;7.80;99.90
21244;DHT22;10780;50.942;4.028;2023-03-01T17:23:27;7.60;99.90
21244;DHT22;10780;50.942;4.028;2023-03-01T17:25:53;7.30;99.90
21244;DHT22;10780;50.942;4.028;2023-03-01T17:28:21;7.10;99.90
21244;DHT22;10780;50.942;4.028;2023-03-01T17:30:47;6.90;99.90
21244;DHT22;10780;50.942;4.028;2023-03-01T17:33:14;6.90;99.90
21244;DHT22;10780;50.942;4.028;2023-03-01T17:35:39;6.70;99.90
21244;DHT22;10780;50.942;4.028;2023-03-01T17:38:05;6.70;99.90
21244;DHT22;10780;50.942;4.028;2023-03-01T17:40:32;6.60;99.90